sensor_id;sensor_type;location;lat;lon;timestamp;P1;P2;P0
53658;PMS5003;41524;35.624;139.698;2022-07-18T00:00:09;14.00;13.00;
53658;PMS5003;41524;35.624;139.698;2022-07-18T00:05:09;12.00;11.00;
53658;PMS5003;41524;35.624;139.698;2022-07-18T00:10:09;15.00;15.00;
53658;PMS5003;41524;35.624;139.698;2022-07-18T00:15:10;15.00;14.00;
53658;PMS5003;41524;35.624;139.698;2022-07-18T00:20:10;16.00;13.00;
53658;PMS5003;41524;35.624;139.698;2022-07-18T00:25:09;15.00;15.00;
53658;PMS5003;41524;35.624;139.698;2022-07-18T00:30:14;15.00;15.00;
53658;PMS5003;41524;35.624;139.698;2022-07-18T00:35:10;16.00;16.00;
53658;PMS5003;41524;35.624;139.698;2022-07-18T00:40:09;14.00;14.00;
53658;PMS5003;41524;35.624;139.698;2022-07-18T00:45:19;28.00;26.00;
53658;PMS5003;41524;35.624;139.698;2022-07-18T00:50:09;20.00;18.00;
53658;PMS5003;41524;35.624;139.698;2022-07-18T00:55:09;22.00;20.00;
53658;PMS5003;41524;35.624;139.698;2022-07-18T01:00:14;32.00;29.00;
53658;PMS5003;41524;35.624;139.698;2022-07-18T01:05:09;27.00;25.00;
53658;PMS5003;41524;35.624;139.698;2022-07-18T01:10:09;35.00;34.00;
53658;PMS5003;41524;35.624;139.698;2022-07-18T01:15:14;24.00;23.00;
53658;PMS5003;41524;35.624;139.698;2022-07-18T01:20:09;38.00;34.00;
53658;PMS5003;41524;35.624;139.698;2022-07-18T01:25:09;34.00;33.00;
53658;PMS5003;41524;35.624;139.698;2022-07-18T01:30:09;33.00;30.00;
53658;PMS5003;41524;35.624;139.698;2022-07-18T01:35:09;45.00;42.00;
53658;PMS5003;41524;35.624;139.698;2022-07-18T01:40:10;54.00;47.00;
53658;PMS5003;41524;35.624;139.698;2022-07-18T01:45:09;48.00;46.00;
53658;PMS5003;41524;35.624;139.698;2022-07-18T01:50:14;42.00;40.00;
53658;PMS5003;41524;35.624;139.698;2022-07-18T01:55:15;42.00;37.00;
53658;PMS5003;41524;35.624;139.698;2022-07-18T02:00:11;45.00;43.00;
53658;PMS5003;41524;35.624;139.698;2022-07-18T02:05:08;41.00;40.00;
53658;PMS5003;41524;35.624;139.698;2022-07-18T02:10:10;35.00;32.00;
53658;PMS5003;41524;35.624;139.698;2022-07-18T02:15:09;46.00;43.00;
53658;PMS5003;41524;35.624;139.698;2022-07-18T02:20:13;44.00;39.00;
53658;PMS5003;41524;35.624;139.698;2022-07-18T02:25:11;47.00;47.00;
53658;PMS5003;41524;35.624;139.698;2022-07-18T02:30:09;49.00;46.00;
53658;PMS5003;41524;35.624;139.698;2022-07-18T02:35:09;45.00;40.00;
53658;PMS5003;41524;35.624;139.698;2022-07-18T02:40:15;53.00;52.00;
53658;PMS5003;41524;35.624;139.698;2022-07-18T02:45:14;48.00;44.00;
53658;PMS5003;41524;35.624;139.698;2022-07-18T02:50:09;53.00;50.00;
53658;PMS5003;41524;35.624;139.698;2022-07-18T02:55:12;47.00;43.00;
53658;PMS5003;41524;35.624;139.698;2022-07-18T03:00:10;55.00;52.00;
53658;PMS5003;41524;35.624;139.698;2022-07-18T03:05:09;51.00;49.00;
53658;PMS5003;41524;35.624;139.698;2022-07-18T03:10:10;40.00;37.00;
53658;PMS5003;41524;35.624;139.698;2022-07-18T03:15:10;36.00;33.00;
53658;PMS5003;41524;35.624;139.698;2022-07-18T03:20:09;41.00;38.00;
53658;PMS5003;41524;35.624;139.698;2022-07-18T03:25:08;33.00;32.00;
53658;PMS5003;41524;35.624;139.698;2022-07-18T03:30:13;42.00;34.00;
53658;PMS5003;41524;35.624;139.698;2022-07-18T03:35:09;40.00;37.00;
53658;PMS5003;41524;35.624;139.698;2022-07-18T03:40:09;42.00;42.00;
53658;PMS5003;41524;35.624;139.698;2022-07-18T03:45:15;42.00;36.00;
53658;PMS5003;41524;35.624;139.698;2022-07-18T03:50:09;49.00;45.00;
53658;PMS5003;41524;35.624;139.698;2022-07-18T03:55:09;36.00;34.00;
53658;PMS5003;41524;35.624;139.698;2022-07-18T04:00:15;46.00;40.00;
53658;PMS5003;41524;35.624;139.698;2022-07-18T04:05:14;33.00;32.00;
53658;PMS5003;41524;35.624;139.698;2022-07-18T04:10:11;40.00;37.00;
53658;PMS5003;41524;35.624;139.698;2022-07-18T04:15:09;34.00;32.00;
53658;PMS5003;41524;35.624;139.698;2022-07-18T04:20:10;31.00;29.00;
53658;PMS5003;41524;35.624;139.698;2022-07-18T04:25:09;35.00;31.00;
53658;PMS5003;41524;35.624;139.698;2022-07-18T04:30:09;24.00;24.00;
53658;PMS5003;41524;35.624;139.698;2022-07-18T04:35:13;35.00;32.00;
53658;PMS5003;41524;35.624;139.698;2022-07-18T04:40:09;39.00;35.00;
53658;PMS5003;41524;35.624;139.698;2022-07-18T04:45:09;35.00;33.00;
53658;PMS5003;41524;35.624;139.698;2022-07-18T04:50:09;36.00;32.00;
53658;PMS5003;41524;35.624;139.698;2022-07-18T04:55:09;34.00;32.00;
53658;PMS5003;41524;35.624;139.698;2022-07-18T05:00:10;35.00;28.00;
53658;PMS5003;41524;35.624;139.698;2022-07-18T05:05:11;29.00;27.00;
53658;PMS5003;41524;35.624;139.698;2022-07-18T05:10:10;31.00;29.00;
53658;PMS5003;41524;35.624;139.698;2022-07-18T05:15:09;22.00;21.00;
53658;PMS5003;41524;35.624;139.698;2022-07-18T05:20:10;35.00;32.00;
53658;PMS5003;41524;35.624;139.698;2022-07-18T05:25:14;22.00;22.00;
53658;PMS5003;41524;35.624;139.698;2022-07-18T05:30:14;25.00;23.00;
53658;PMS5003;41524;35.624;139.698;2022-07-18T05:35:09;19.00;18.00;
53658;PMS5003;41524;35.624;139.698;2022-07-18T05:40:09;27.00;25.00;
53658;PMS5003;41524;35.624;139.698;2022-07-18T05:45:09;18.00;16.00;
53658;PMS5003;41524;35.624;139.698;2022-07-18T05:50:09;16.00;15.00;
53658;PMS5003;41524;35.624;139.698;2022-07-18T05:55:09;22.00;22.00;
53658;PMS5003;41524;35.624;139.698;2022-07-18T06:00:14;21.00;21.00;
53658;PMS5003;41524;35.624;139.698;2022-07-18T06:05:10;21.00;20.00;
53658;PMS5003;41524;35.624;139.698;2022-07-18T06:10:09;36.00;30.00;
53658;PMS5003;41524;35.624;139.698;2022-07-18T06:15:15;29.00;20.00;
53658;PMS5003;41524;35.624;139.698;2022-07-18T06:20:08;23.00;23.00;
53658;PMS5003;41524;35.624;139.698;2022-07-18T06:25:09;21.00;21.00;
53658;PMS5003;41524;35.624;139.698;2022-07-18T06:30:10;31.00;30.00;
53658;PMS5003;41524;35.624;139.698;2022-07-18T06:35:13;25.00;24.00;
53658;PMS5003;41524;35.624;139.698;2022-07-18T06:40:13;26.00;26.00;
53658;PMS5003;41524;35.624;139.698;2022-07-18T06:45:09;27.00;25.00;
53658;PMS5003;41524;35.624;139.698;2022-07-18T06:50:08;22.00;21.00;
53658;PMS5003;41524;35.624;139.698;2022-07-18T06:55:11;24.00;22.00;
53658;PMS5003;41524;35.624;139.698;2022-07-18T07:00:09;24.00;23.00;
53658;PMS5003;41524;35.624;139.698;2022-07-18T07:05:14;20.00;18.00;
53658;PMS5003;41524;35.624;139.698;2022-07-18T07:10:08;22.00;22.00;
53658;PMS5003;41524;35.624;139.698;2022-07-18T07:15:11;22.00;22.00;
53658;PMS5003;41524;35.624;139.698;2022-07-18T07:20:10;23.00;23.00;
53658;PMS5003;41524;35.624;139.698;2022-07-18T07:25:16;29.00;27.00;
53658;PMS5003;41524;35.624;139.698;2022-07-18T07:30:14;25.00;25.00;
53658;PMS5003;41524;35.624;139.698;2022-07-18T07:35:09;29.00;26.00;
53658;PMS5003;41524;35.624;139.698;2022-07-18T07:40:14;21.00;21.00;
53658;PMS5003;41524;35.624;139.698;2022-07-18T07:45:15;25.00;23.00;
53658;PMS5003;41524;35.624;139.698;2022-07-18T07:50:10;23.00;23.00;
53658;PMS5003;41524;35.624;139.698;2022-07-18T07:55:12;22.00;22.00;
53658;PMS5003;41524;35.624;139.698;2022-07-18T08:00:08;24.00;23.00;
53658;PMS5003;41524;35.624;139.698;2022-07-18T08:05:09;28.00;26.00;
53658;PMS5003;41524;35.624;139.698;2022-07-18T08:10:11;27.00;26.00;
53658;PMS5003;41524;35.624;139.698;2022-07-18T08:15:09;33.00;32.00;
53658;PMS5003;41524;35.624;139.698;2022-07-18T08:20:10;27.00;24.00;
53658;PMS5003;41524;35.624;139.698;2022-07-18T08:25:09;31.00;29.00;
53658;PMS5003;41524;35.624;139.698;2022-07-18T08:30:14;32.00;30.00;
53658;PMS5003;41524;35.624;139.698;2022-07-18T08:35:10;29.00;25.00;
53658;PMS5003;41524;35.624;139.698;2022-07-18T08:40:13;31.00;31.00;
53658;PMS5003;41524;35.624;139.698;2022-07-18T08:45:21;26.00;24.00;
53658;PMS5003;41524;35.624;139.698;2022-07-18T08:50:09;32.00;29.00;
53658;PMS5003;41524;35.624;139.698;2022-07-18T08:55:09;32.00;29.00;
53658;PMS5003;41524;35.624;139.698;2022-07-18T09:00:14;27.00;27.00;
53658;PMS5003;41524;35.624;139.698;2022-07-18T09:05:17;34.00;28.00;
53658;PMS5003;41524;35.624;139.698;2022-07-18T09:10:09;35.00;34.00;
53658;PMS5003;41524;35.624;139.698;2022-07-18T09:15:10;33.00;33.00;
53658;PMS5003;41524;35.624;139.698;2022-07-18T09:20:09;37.00;35.00;
53658;PMS5003;41524;35.624;139.698;2022-07-18T09:25:14;31.00;31.00;
53658;PMS5003;41524;35.624;139.698;2022-07-18T09:30:25;29.00;24.00;
53658;PMS5003;41524;35.624;139.698;2022-07-18T09:35:12;39.00;36.00;
53658;PMS5003;41524;35.624;139.698;2022-07-18T09:40:16;58.00;56.00;
53658;PMS5003;41524;35.624;139.698;2022-07-18T09:45:10;56.00;55.00;
53658;PMS5003;41524;35.624;139.698;2022-07-18T09:50:09;31.00;31.00;
53658;PMS5003;41524;35.624;139.698;2022-07-18T09:55:10;27.00;25.00;
53658;PMS5003;41524;35.624;139.698;2022-07-18T10:00:13;29.00;25.00;
53658;PMS5003;41524;35.624;139.698;2022-07-18T10:05:09;35.00;34.00;
53658;PMS5003;41524;35.624;139.698;2022-07-18T10:10:08;28.00;27.00;
53658;PMS5003;41524;35.624;139.698;2022-07-18T10:15:14;37.00;35.00;
53658;PMS5003;41524;35.624;139.698;2022-07-18T10:20:10;27.00;26.00;
53658;PMS5003;41524;35.624;139.698;2022-07-18T10:25:10;35.00;33.00;
53658;PMS5003;41524;35.624;139.698;2022-07-18T10:30:29;35.00;34.00;
53658;PMS5003;41524;35.624;139.698;2022-07-18T10:35:09;40.00;37.00;
53658;PMS5003;41524;35.624;139.698;2022-07-18T10:40:25;29.00;28.00;
53658;PMS5003;41524;35.624;139.698;2022-07-18T10:45:20;34.00;29.00;
53658;PMS5003;41524;35.624;139.698;2022-07-18T10:50:21;38.00;35.00;
53658;PMS5003;41524;35.624;139.698;2022-07-18T10:55:32;40.00;37.00;
53658;PMS5003;41524;35.624;139.698;2022-07-18T11:00:10;38.00;37.00;
53658;PMS5003;41524;35.624;139.698;2022-07-18T11:05:42;37.00;32.00;
53658;PMS5003;41524;35.624;139.698;2022-07-18T11:10:08;39.00;36.00;
53658;PMS5003;41524;35.624;139.698;2022-07-18T11:15:10;34.00;33.00;
53658;PMS5003;41524;35.624;139.698;2022-07-18T11:20:26;31.00;29.00;
53658;PMS5003;41524;35.624;139.698;2022-07-18T11:25:09;30.00;29.00;
53658;PMS5003;41524;35.624;139.698;2022-07-18T11:30:16;32.00;32.00;
53658;PMS5003;41524;35.624;139.698;2022-07-18T11:35:10;31.00;29.00;
53658;PMS5003;41524;35.624;139.698;2022-07-18T11:40:10;38.00;36.00;
53658;PMS5003;41524;35.624;139.698;2022-07-18T11:45:14;36.00;35.00;
53658;PMS5003;41524;35.624;139.698;2022-07-18T11:50:09;37.00;34.00;
53658;PMS5003;41524;35.624;139.698;2022-07-18T11:55:14;36.00;30.00;
53658;PMS5003;41524;35.624;139.698;2022-07-18T12:00:15;35.00;35.00;
53658;PMS5003;41524;35.624;139.698;2022-07-18T12:05:09;37.00;35.00;
53658;PMS5003;41524;35.624;139.698;2022-07-18T12:10:17;38.00;38.00;
53658;PMS5003;41524;35.624;139.698;2022-07-18T12:15:09;41.00;38.00;
53658;PMS5003;41524;35.624;139.698;2022-07-18T12:20:10;34.00;32.00;
53658;PMS5003;41524;35.624;139.698;2022-07-18T12:25:19;37.00;34.00;
53658;PMS5003;41524;35.624;139.698;2022-07-18T12:30:11;33.00;32.00;
53658;PMS5003;41524;35.624;139.698;2022-07-18T12:35:10;39.00;39.00;
53658;PMS5003;41524;35.624;139.698;2022-07-18T12:40:10;37.00;37.00;
53658;PMS5003;41524;35.624;139.698;2022-07-18T12:45:21;39.00;33.00;
53658;PMS5003;41524;35.624;139.698;2022-07-18T12:50:09;33.00;33.00;
53658;PMS5003;41524;35.624;139.698;2022-07-18T12:55:14;39.00;38.00;
53658;PMS5003;41524;35.624;139.698;2022-07-18T13:00:09;39.00;37.00;
53658;PMS5003;41524;35.624;139.698;2022-07-18T13:05:10;41.00;40.00;
53658;PMS5003;41524;35.624;139.698;2022-07-18T13:10:10;40.00;38.00;
53658;PMS5003;41524;35.624;139.698;2022-07-18T13:15:10;46.00;43.00;
53658;PMS5003;41524;35.624;139.698;2022-07-18T13:20:09;43.00;38.00;
53658;PMS5003;41524;35.624;139.698;2022-07-18T13:25:09;45.00;44.00;
53658;PMS5003;41524;35.624;139.698;2022-07-18T13:30:09;37.00;35.00;
53658;PMS5003;41524;35.624;139.698;2022-07-18T13:35:14;40.00;35.00;
53658;PMS5003;41524;35.624;139.698;2022-07-18T13:40:14;37.00;36.00;
53658;PMS5003;41524;35.624;139.698;2022-07-18T13:45:09;32.00;32.00;
53658;PMS5003;41524;35.624;139.698;2022-07-18T13:50:09;40.00;39.00;
53658;PMS5003;41524;35.624;139.698;2022-07-18T13:55:09;40.00;40.00;
53658;PMS5003;41524;35.624;139.698;2022-07-18T14:00:09;43.00;43.00;
53658;PMS5003;41524;35.624;139.698;2022-07-18T14:05:13;48.00;43.00;
53658;PMS5003;41524;35.624;139.698;2022-07-18T14:10:19;38.00;35.00;
53658;PMS5003;41524;35.624;139.698;2022-07-18T14:15:10;40.00;35.00;
53658;PMS5003;41524;35.624;139.698;2022-07-18T14:20:13;37.00;34.00;
53658;PMS5003;41524;35.624;139.698;2022-07-18T14:25:10;48.00;43.00;
53658;PMS5003;41524;35.624;139.698;2022-07-18T14:30:10;48.00;46.00;
53658;PMS5003;41524;35.624;139.698;2022-07-18T14:35:09;29.00;29.00;
53658;PMS5003;41524;35.624;139.698;2022-07-18T14:40:15;39.00;34.00;
53658;PMS5003;41524;35.624;139.698;2022-07-18T14:45:09;36.00;35.00;
53658;PMS5003;41524;35.624;139.698;2022-07-18T14:50:09;36.00;34.00;
53658;PMS5003;41524;35.624;139.698;2022-07-18T14:55:09;36.00;36.00;
53658;PMS5003;41524;35.624;139.698;2022-07-18T15:00:09;33.00;33.00;
53658;PMS5003;41524;35.624;139.698;2022-07-18T15:05:09;37.00;37.00;
53658;PMS5003;41524;35.624;139.698;2022-07-18T15:10:14;34.00;33.00;
53658;PMS5003;41524;35.624;139.698;2022-07-18T15:15:10;37.00;35.00;
53658;PMS5003;41524;35.624;139.698;2022-07-18T15:20:09;31.00;28.00;
53658;PMS5003;41524;35.624;139.698;2022-07-18T15:25:09;34.00;34.00;
53658;PMS5003;41524;35.624;139.698;2022-07-18T15:30:18;35.00;34.00;
53658;PMS5003;41524;35.624;139.698;2022-07-18T15:35:10;34.00;31.00;
53658;PMS5003;41524;35.624;139.698;2022-07-18T15:40:09;30.00;29.00;
53658;PMS5003;41524;35.624;139.698;2022-07-18T15:45:08;26.00;25.00;
53658;PMS5003;41524;35.624;139.698;2022-07-18T15:50:17;31.00;30.00;
53658;PMS5003;41524;35.624;139.698;2022-07-18T15:55:13;38.00;35.00;
53658;PMS5003;41524;35.624;139.698;2022-07-18T16:00:09;34.00;34.00;
53658;PMS5003;41524;35.624;139.698;2022-07-18T16:05:09;28.00;25.00;
53658;PMS5003;41524;35.624;139.698;2022-07-18T16:10:09;27.00;27.00;
53658;PMS5003;41524;35.624;139.698;2022-07-18T16:15:09;35.00;32.00;
53658;PMS5003;41524;35.624;139.698;2022-07-18T16:20:09;37.00;34.00;
53658;PMS5003;41524;35.624;139.698;2022-07-18T16:25:09;37.00;33.00;
53658;PMS5003;41524;35.624;139.698;2022-07-18T16:30:09;30.00;30.00;
53658;PMS5003;41524;35.624;139.698;2022-07-18T16:35:11;26.00;25.00;
53658;PMS5003;41524;35.624;139.698;2022-07-18T16:40:09;30.00;29.00;
53658;PMS5003;41524;35.624;139.698;2022-07-18T16:45:15;28.00;28.00;
53658;PMS5003;41524;35.624;139.698;2022-07-18T16:50:10;35.00;33.00;
53658;PMS5003;41524;35.624;139.698;2022-07-18T16:55:14;39.00;39.00;
53658;PMS5003;41524;35.624;139.698;2022-07-18T17:00:09;40.00;38.00;
53658;PMS5003;41524;35.624;139.698;2022-07-18T17:05:09;39.00;39.00;
53658;PMS5003;41524;35.624;139.698;2022-07-18T17:10:09;40.00;38.00;
53658;PMS5003;41524;35.624;139.698;2022-07-18T17:15:09;38.00;35.00;
53658;PMS5003;41524;35.624;139.698;2022-07-18T17:20:10;33.00;29.00;
53658;PMS5003;41524;35.624;139.698;2022-07-18T17:25:09;37.00;35.00;
53658;PMS5003;41524;35.624;139.698;2022-07-18T17:30:10;29.00;29.00;
53658;PMS5003;41524;35.624;139.698;2022-07-18T17:35:09;34.00;34.00;
53658;PMS5003;41524;35.624;139.698;2022-07-18T17:40:09;39.00;37.00;
53658;PMS5003;41524;35.624;139.698;2022-07-18T17:45:10;32.00;31.00;
53658;PMS5003;41524;35.624;139.698;2022-07-18T17:50:10;33.00;33.00;
53658;PMS5003;41524;35.624;139.698;2022-07-18T17:55:09;30.00;29.00;
53658;PMS5003;41524;35.624;139.698;2022-07-18T18:00:09;31.00;29.00;
53658;PMS5003;41524;35.624;139.698;2022-07-18T18:05:09;31.00;30.00;
53658;PMS5003;41524;35.624;139.698;2022-07-18T18:10:10;29.00;26.00;
53658;PMS5003;41524;35.624;139.698;2022-07-18T18:15:09;36.00;33.00;
53658;PMS5003;41524;35.624;139.698;2022-07-18T18:20:10;29.00;27.00;
53658;PMS5003;41524;35.624;139.698;2022-07-18T18:25:09;36.00;31.00;
53658;PMS5003;41524;35.624;139.698;2022-07-18T18:30:09;40.00;36.00;
53658;PMS5003;41524;35.624;139.698;2022-07-18T18:35:09;34.00;33.00;
53658;PMS5003;41524;35.624;139.698;2022-07-18T18:40:09;32.00;32.00;
53658;PMS5003;41524;35.624;139.698;2022-07-18T18:45:09;36.00;34.00;
53658;PMS5003;41524;35.624;139.698;2022-07-18T18:50:09;32.00;29.00;
53658;PMS5003;41524;35.624;139.698;2022-07-18T18:55:09;30.00;28.00;
53658;PMS5003;41524;35.624;139.698;2022-07-18T19:00:09;30.00;29.00;
53658;PMS5003;41524;35.624;139.698;2022-07-18T19:05:10;29.00;27.00;
53658;PMS5003;41524;35.624;139.698;2022-07-18T19:10:09;40.00;37.00;
53658;PMS5003;41524;35.624;139.698;2022-07-18T19:15:09;28.00;27.00;
53658;PMS5003;41524;35.624;139.698;2022-07-18T19:20:09;33.00;31.00;
53658;PMS5003;41524;35.624;139.698;2022-07-18T19:25:09;35.00;34.00;
53658;PMS5003;41524;35.624;139.698;2022-07-18T19:30:11;34.00;34.00;
53658;PMS5003;41524;35.624;139.698;2022-07-18T19:35:09;33.00;31.00;
53658;PMS5003;41524;35.624;139.698;2022-07-18T19:40:10;28.00;28.00;
53658;PMS5003;41524;35.624;139.698;2022-07-18T19:45:09;34.00;33.00;
53658;PMS5003;41524;35.624;139.698;2022-07-18T19:50:09;30.00;28.00;
53658;PMS5003;41524;35.624;139.698;2022-07-18T19:55:10;33.00;32.00;
53658;PMS5003;41524;35.624;139.698;2022-07-18T20:00:09;38.00;37.00;
53658;PMS5003;41524;35.624;139.698;2022-07-18T20:05:18;26.00;26.00;
53658;PMS5003;41524;35.624;139.698;2022-07-18T20:10:09;30.00;29.00;
53658;PMS5003;41524;35.624;139.698;2022-07-18T20:15:09;29.00;25.00;
53658;PMS5003;41524;35.624;139.698;2022-07-18T20:20:10;30.00;27.00;
53658;PMS5003;41524;35.624;139.698;2022-07-18T20:25:09;26.00;24.00;
53658;PMS5003;41524;35.624;139.698;2022-07-18T20:30:10;23.00;22.00;
53658;PMS5003;41524;35.624;139.698;2022-07-18T20:35:14;22.00;21.00;
53658;PMS5003;41524;35.624;139.698;2022-07-18T20:40:10;25.00;25.00;
53658;PMS5003;41524;35.624;139.698;2022-07-18T20:45:10;22.00;21.00;
53658;PMS5003;41524;35.624;139.698;2022-07-18T20:50:09;15.00;15.00;
53658;PMS5003;41524;35.624;139.698;2022-07-18T20:55:09;15.00;14.00;
53658;PMS5003;41524;35.624;139.698;2022-07-18T21:00:11;14.00;14.00;
53658;PMS5003;41524;35.624;139.698;2022-07-18T21:05:09;15.00;13.00;
53658;PMS5003;41524;35.624;139.698;2022-07-18T21:10:09;9.00;9.00;
53658;PMS5003;41524;35.624;139.698;2022-07-18T21:15:09;12.00;9.00;
53658;PMS5003;41524;35.624;139.698;2022-07-18T21:20:10;9.00;9.00;
53658;PMS5003;41524;35.624;139.698;2022-07-18T21:25:15;13.00;13.00;
53658;PMS5003;41524;35.624;139.698;2022-07-18T21:30:14;7.00;6.00;
53658;PMS5003;41524;35.624;139.698;2022-07-18T21:35:08;5.00;5.00;
53658;PMS5003;41524;35.624;139.698;2022-07-18T21:40:14;6.00;6.00;
53658;PMS5003;41524;35.624;139.698;2022-07-18T21:45:10;2.00;1.00;
53658;PMS5003;41524;35.624;139.698;2022-07-18T21:50:09;2.00;2.00;
53658;PMS5003;41524;35.624;139.698;2022-07-18T21:55:10;3.00;2.00;
53658;PMS5003;41524;35.624;139.698;2022-07-18T22:00:14;1.00;1.00;
53658;PMS5003;41524;35.624;139.698;2022-07-18T22:05:09;3.00;2.00;
53658;PMS5003;41524;35.624;139.698;2022-07-18T22:10:11;2.00;2.00;
53658;PMS5003;41524;35.624;139.698;2022-07-18T22:15:09;1.00;1.00;
53658;PMS5003;41524;35.624;139.698;2022-07-18T22:20:09;2.00;2.00;
53658;PMS5003;41524;35.624;139.698;2022-07-18T22:25:09;1.00;1.00;
53658;PMS5003;41524;35.624;139.698;2022-07-18T22:30:10;2.00;2.00;
53658;PMS5003;41524;35.624;139.698;2022-07-18T22:35:09;3.00;1.00;
53658;PMS5003;41524;35.624;139.698;2022-07-18T22:40:10;1.00;0.00;
53658;PMS5003;41524;35.624;139.698;2022-07-18T22:45:12;3.00;3.00;
53658;PMS5003;41524;35.624;139.698;2022-07-18T22:50:09;1.00;1.00;
53658;PMS5003;41524;35.624;139.698;2022-07-18T22:55:09;1.00;1.00;
53658;PMS5003;41524;35.624;139.698;2022-07-18T23:00:10;6.00;5.00;
53658;PMS5003;41524;35.624;139.698;2022-07-18T23:05:10;5.00;4.00;
53658;PMS5003;41524;35.624;139.698;2022-07-18T23:10:10;3.00;3.00;
53658;PMS5003;41524;35.624;139.698;2022-07-18T23:15:09;3.00;3.00;
53658;PMS5003;41524;35.624;139.698;2022-07-18T23:20:10;2.00;2.00;
53658;PMS5003;41524;35.624;139.698;2022-07-18T23:25:10;4.00;4.00;
53658;PMS5003;41524;35.624;139.698;2022-07-18T23:30:10;2.00;2.00;
53658;PMS5003;41524;35.624;139.698;2022-07-18T23:35:09;2.00;2.00;
53658;PMS5003;41524;35.624;139.698;2022-07-18T23:40:11;3.00;3.00;
53658;PMS5003;41524;35.624;139.698;2022-07-18T23:45:09;3.00;3.00;
53658;PMS5003;41524;35.624;139.698;2022-07-18T23:50:09;7.00;5.00;
53658;PMS5003;41524;35.624;139.698;2022-07-18T23:55:14;3.00;3.00;
